หน้าหลัก
METAR-TAF:

METAR-TAF

ท่าอากาศยาน :

เคมบริดจ์, อังกฤษ

ละติจูด: 52-12N, ลองจิจูด: 000-11E, ความสูง: 15 ม.

การสังเกตสภาพอากาศปัจจุบัน

รายงานได้ทำขึ้นเมื่อ 11 ชั่วโมงและ 49 นาทีที่แล้ว ณ เวลา 16:50 UTC
ลม 5 นอตจากใต้/ตะวันตกเฉียงใต้
อุณหภูมิ 15°C
ความชื้น 59%
ความกดอากาศ 1019 hPa
ทัศนวิสัย 10 กม. หรือมากกว่า
มีเมฆกระจายเป็นบางส่วนที่ความสูง 4000 ฟุต

METAR: EGSC 121650Z 20005KT 9999 SCT040 15/07 Q1019

เวลา: 05:39 (04:39 UTC)

การพยากรณ์

รายงานได้ทำขึ้นเมื่อ 14 ชั่วโมงและ 42 นาทีที่แล้ว ณ เวลา 13:57 UTC
การพยากรณ์มีผลตั้งแต่วันที่ 12 ณ เวลา 15 UTC จนถึงวันที่ 12 ณ เวลา 17 UTC
ลม 6 นอตจากตะวันตก
ทัศนวิสัย 10 กม. หรือมากกว่า
มีเมฆน้อยที่ความสูง 4000 ฟุต

TAF: EGSC 121357Z 1215/1217 27006KT 9999 FEW040

สังเกตการณ์สภาพอากาศและพยากรณ์อากาศของสนามบินมากกว่า 4000 แห่ง (รายงาน METAR และ TAF).

สถานีที่ดูได้จะแสดงไว้ด้วยจุดสีเหลืองและสีแดงบนแผนที่.

เลื่อนเมาส์ไปเหนือจุดเพื่อดูชื่อสถานี.

แล้วคลิกเพื่อดูสังเกตการณ์และการพยากรณ์สภาพอากาศ.

ในการเปลี่ยนแผนที่: คลิกที่ปุ่มสีเขียวที่มีกากบาทสีดำเพื่อซูมเข้า; ที่ปุ่มสีเขียวที่มีขีดเพื่อซูมออก; หรือที่ลูกศรสีเขียวเพื่อไปยังแผนที่ที่อยู่ติดกัน.


METAR-TAF: